This is the latest recevied weather packets stored in our database for station/object K2RMB. If no packets are shown the sender has not sent any weather packets the latest 10 day(s).
| Time | Temp. | Humidity | Pressure | Rain* | Wind** | Luminosity | Snow |
|---|---|---|---|---|---|---|---|
| 1777219890 | 14.44° C | 43% | 1020.2 hPa | 0 mm | - | 910 W/m² | - |
| 1777219588 | 13.89° C | 44% | 1020.6 hPa | 0 mm | - | 839 W/m² | - |
| 1777219284 | 14.44° C | 45% | 1020.2 hPa | 0 mm | - | 835 W/m² | - |
| 1777218980 | 13.89° C | 48% | 1020.6 hPa | 0 mm | - | 816 W/m² | - |
| 1777218676 | 13.89° C | 42% | 1020.6 hPa | 0 mm | - | 543 W/m² | - |
| 1777218371 | 13.89° C | 45% | 1020.6 hPa | 0 mm | - | 803 W/m² | - |
| 1777218068 | 13.89° C | 46% | 1020.6 hPa | 0 mm | - | 794 W/m² | - |
| 1777217763 | 13.33° C | 48% | 1020.6 hPa | 0 mm | - | 785 W/m² | - |
| 1777217460 | 13.33° C | 48% | 1020.6 hPa | 0 mm | - | 778 W/m² | - |
| 1777217155 | 13.33° C | 50% | 1020.6 hPa | 0 mm | - | 772 W/m² | - |
| 1777216852 | 13.33° C | 50% | 1020.9 hPa | 0 mm | - | 763 W/m² | - |
| 1777216549 | 12.78° C | 53% | 1020.6 hPa | 0 mm | - | 758 W/m² | - |
| 1777216245 | 12.22° C | 55% | 1020.6 hPa | 0 mm | - | 754 W/m² | - |
| 1777215944 | 12.22° C | 57% | 1020.6 hPa | 0 mm | - | 745 W/m² | - |
| 1777215640 | 12.22° C | 55% | 1020.6 hPa | 0 mm | - | 737 W/m² | - |
| 1777215335 | 11.67° C | 59% | 1020.6 hPa | 0 mm | - | 730 W/m² | - |
| 1777215033 | 11.67° C | 58% | 1020.6 hPa | 0 mm | - | 720 W/m² | - |
| 1777214732 | 11.11° C | 58% | 1020.9 hPa | 0 mm | - | 716 W/m² | - |
| 1777214432 | 11.67° C | 56% | 1020.9 hPa | 0 mm | - | 703 W/m² | - |
| 1777214132 | 11.11° C | 56% | 1020.9 hPa | 0 mm | - | 695 W/m² | - |
| 1777213826 | 11.11° C | 59% | 1020.9 hPa | 0 mm | - | 683 W/m² | - |
| 1777213521 | 11.11° C | 60% | 1020.9 hPa | 0 mm | - | 671 W/m² | - |
| 1777213219 | 10.56° C | 61% | 1020.9 hPa | 0 mm | - | 663 W/m² | - |
| 1777212915 | 10.56° C | 62% | 1020.9 hPa | 0 mm | - | 639 W/m² | - |
| 1777212614 | 10.56° C | 64% | 1020.9 hPa | 0 mm | - | 639 W/m² | - |
* Rain latest hour (hover to see other rain measurements)
** Current wind speed in m/s (hover to see current wind gust speed)